Time;durP1;ratioP1;P1;durP2;ratioP2;P2;SDS_P1;SDS_P2;PMS_P1;PMS_P2;Temp;Humidity;BMP_temperature;BMP_pressure;BME280_temperature;BME280_humidity;BME280_pressure;Samples;Min_cycle;Max_cycle;Signal;HPM_P1;HPM_P2
2021/12/31 00:01:45;;;;;;;9.23;7.63;;;13.20;99.90;;;;;;5075540;28;20515;-70
2021/12/31 00:04:13;;;;;;;12.30;8.97;;;13.20;99.90;;;;;;5075445;28;20538;-70
2021/12/31 00:06:42;;;;;;;8.40;7.50;;;13.20;99.90;;;;;;5075397;28;20466;-70
2021/12/31 00:09:09;;;;;;;9.47;7.70;;;13.20;99.90;;;;;;5075347;28;20565;-70
2021/12/31 00:11:37;;;;;;;9.77;7.83;;;13.20;99.90;;;;;;5075259;28;20482;-69
2021/12/31 00:14:04;;;;;;;8.60;7.60;;;13.20;99.90;;;;;;5074826;28;20480;-71
2021/12/31 00:16:30;;;;;;;8.07;7.10;;;13.10;99.90;;;;;;5075379;28;20454;-70
2021/12/31 00:18:57;;;;;;;7.43;6.63;;;13.10;99.90;;;;;;5075336;28;20466;-70
2021/12/31 00:21:25;;;;;;;9.10;8.10;;;13.10;99.90;;;;;;5075356;28;20463;-69
2021/12/31 00:23:52;;;;;;;9.13;8.23;;;13.10;99.90;;;;;;5075449;28;20515;-70
2021/12/31 00:26:18;;;;;;;10.47;8.30;;;13.00;99.90;;;;;;5075005;28;20805;-70
2021/12/31 00:28:45;;;;;;;9.27;8.20;;;13.00;99.90;;;;;;5074806;28;20556;-70
2021/12/31 00:31:12;;;;;;;10.30;8.70;;;13.00;99.90;;;;;;5074903;28;20482;-70
2021/12/31 00:33:38;;;;;;;10.10;8.40;;;13.00;99.90;;;;;;5074937;28;20514;-69
2021/12/31 00:36:05;;;;;;;10.90;8.93;;;13.00;99.90;;;;;;5074780;28;20458;-69
2021/12/31 00:38:33;;;;;;;12.37;9.93;;;13.00;99.90;;;;;;5074136;28;20458;-70
2021/12/31 00:41:00;;;;;;;13.03;9.70;;;13.00;99.90;;;;;;5074505;28;20450;-70
2021/12/31 00:43:26;;;;;;;15.67;9.47;;;13.00;99.90;;;;;;5074760;28;20462;-70
2021/12/31 00:45:53;;;;;;;11.80;10.47;;;13.00;99.90;;;;;;5074619;28;20458;-70
2021/12/31 00:48:20;;;;;;;13.27;10.63;;;13.00;99.90;;;;;;5074215;28;20519;-70
2021/12/31 00:50:46;;;;;;;15.33;11.53;;;13.00;99.90;;;;;;5074453;28;20930;-70
2021/12/31 00:53:13;;;;;;;19.07;11.47;;;13.00;99.90;;;;;;5074606;28;20469;-70
2021/12/31 00:55:41;;;;;;;14.43;11.37;;;13.00;99.90;;;;;;5074586;28;20519;-70
2021/12/31 00:58:08;;;;;;;19.40;12.40;;;13.00;99.90;;;;;;5074608;28;20776;-70
2021/12/31 01:00:35;;;;;;;17.80;12.27;;;13.10;99.90;;;;;;5074408;28;20458;-70
2021/12/31 01:03:02;;;;;;;15.67;11.93;;;13.10;99.90;;;;;;5074542;28;20873;-70
2021/12/31 01:05:29;;;;;;;16.73;11.40;;;13.20;99.90;;;;;;5075107;28;20458;-70
2021/12/31 01:07:55;;;;;;;14.53;11.30;;;13.20;99.90;;;;;;5074519;28;20511;-70
2021/12/31 01:10:25;;;;;;;13.97;11.97;;;13.20;99.90;;;;;;5074333;28;20470;-70
2021/12/31 01:12:54;;;;;;;18.70;12.90;;;13.20;99.90;;;;;;5074300;28;20478;-70
2021/12/31 01:15:32;;;;;;;16.57;12.17;;;13.20;99.90;;;;;;5074547;28;20494;-70
2021/12/31 01:18:19;;;;;;;16.40;11.60;;;13.20;99.90;;;;;;5074458;28;20442;-70
2021/12/31 01:20:46;;;;;;;13.43;12.00;;;13.30;99.90;;;;;;5074617;28;20449;-70
2021/12/31 01:23:15;;;;;;;12.00;9.80;;;13.30;99.90;;;;;;5074838;28;20464;-70
2021/12/31 01:25:42;;;;;;;12.70;10.93;;;13.30;99.90;;;;;;5074324;28;20521;-70
2021/12/31 01:28:10;;;;;;;13.13;11.60;;;13.30;99.90;;;;;;5074118;28;20465;-70
2021/12/31 01:30:37;;;;;;;11.77;10.40;;;13.30;99.90;;;;;;5074014;28;20511;-70
2021/12/31 01:33:03;;;;;;;13.83;11.10;;;13.40;99.90;;;;;;5073918;28;20478;-70
2021/12/31 01:35:30;;;;;;;12.00;10.20;;;13.40;99.90;;;;;;5073807;28;20458;-70
2021/12/31 01:37:57;;;;;;;13.73;10.20;;;13.30;99.90;;;;;;5073868;28;20470;-70
2021/12/31 01:40:23;;;;;;;14.33;11.60;;;13.30;99.90;;;;;;5074118;28;20466;-70
2021/12/31 01:42:52;;;;;;;14.60;10.63;;;13.30;99.90;;;;;;5074254;28;20526;-70
2021/12/31 01:45:21;;;;;;;14.67;10.83;;;13.30;99.90;;;;;;5073957;28;20886;-70
2021/12/31 01:48:07;;;;;;;14.63;11.40;;;13.30;99.90;;;;;;5073806;28;20540;-70
2021/12/31 01:50:36;;;;;;;13.57;10.37;;;13.30;99.90;;;;;;5074038;28;20442;-70
2021/12/31 01:53:05;;;;;;;11.63;9.53;;;13.30;99.90;;;;;;5073634;28;20493;-70
2021/12/31 01:55:34;;;;;;;12.00;9.17;;;13.30;99.90;;;;;;5075309;28;20862;-71
2021/12/31 01:58:03;;;;;;;10.73;8.30;;;13.30;99.90;;;;;;5077639;28;20468;-70
2021/12/31 02:00:32;;;;;;;9.73;7.50;;;13.30;99.90;;;;;;5077190;28;20490;-70
2021/12/31 02:03:01;;;;;;;8.20;7.07;;;13.40;99.90;;;;;;5077491;28;20454;-70
2021/12/31 02:05:28;;;;;;;6.70;6.10;;;13.40;99.90;;;;;;5077428;28;20462;-70
2021/12/31 02:07:54;;;;;;;9.50;6.40;;;13.40;99.90;;;;;;5077284;28;20468;-70
2021/12/31 02:10:21;;;;;;;7.40;6.57;;;13.50;99.90;;;;;;5077191;28;20922;-70
2021/12/31 02:12:49;;;;;;;7.40;6.47;;;13.50;99.90;;;;;;5076884;28;20478;-70
2021/12/31 02:15:17;;;;;;;7.10;6.10;;;13.50;99.90;;;;;;5077015;28;20468;-70
2021/12/31 02:17:47;;;;;;;5.80;5.20;;;13.50;99.90;;;;;;5077300;28;20979;-70
2021/12/31 02:20:17;;;;;;;6.30;5.70;;;13.40;99.90;;;;;;5077583;28;20516;-70
2021/12/31 02:22:51;;;;;;;7.10;5.30;;;13.40;99.90;;;;;;5077218;28;20454;-70
2021/12/31 02:25:19;;;;;;;6.83;5.33;;;13.40;99.90;;;;;;5077581;28;20445;-71
2021/12/31 02:27:46;;;;;;;7.67;5.20;;;13.30;99.90;;;;;;5077524;28;20458;-71
2021/12/31 02:30:13;;;;;;;6.37;5.63;;;13.20;99.90;;;;;;5077363;28;20980;-71
2021/12/31 02:32:40;;;;;;;6.13;5.23;;;13.20;99.90;;;;;;5076828;28;20543;-71
2021/12/31 02:35:08;;;;;;;7.40;5.40;;;13.10;99.90;;;;;;5077200;28;20458;-71
2021/12/31 02:37:36;;;;;;;8.20;6.57;;;13.10;99.90;;;;;;5077403;28;20918;-71
2021/12/31 02:40:05;;;;;;;7.33;6.07;;;13.10;99.90;;;;;;5077198;28;20750;-70
2021/12/31 02:42:31;;;;;;;6.50;5.73;;;13.10;99.90;;;;;;5076709;28;20458;-70
2021/12/31 02:44:58;;;;;;;9.03;7.27;;;13.10;99.90;;;;;;5076300;28;20926;-70
2021/12/31 02:47:25;;;;;;;9.93;8.27;;;13.10;99.90;;;;;;5076231;28;20517;-71
2021/12/31 02:49:53;;;;;;;11.40;8.17;;;13.10;99.90;;;;;;5077431;28;20767;-70
2021/12/31 02:52:21;;;;;;;10.77;8.27;;;13.10;99.90;;;;;;5076334;28;20806;-70
2021/12/31 02:54:50;;;;;;;10.30;8.73;;;13.20;99.90;;;;;;5076623;28;20539;-70
2021/12/31 02:57:20;;;;;;;12.20;9.20;;;13.20;99.90;;;;;;5076580;28;20458;-71
2021/12/31 02:59:47;;;;;;;11.77;9.20;;;13.20;99.90;;;;;;5076845;28;20454;-71
2021/12/31 03:02:15;;;;;;;14.10;10.00;;;13.20;99.90;;;;;;5076465;28;20461;-71
2021/12/31 03:04:43;;;;;;;14.30;11.80;;;13.30;99.90;;;;;;5076354;28;20811;-70
2021/12/31 03:07:12;;;;;;;16.30;11.80;;;13.30;99.90;;;;;;5076247;28;20462;-70
2021/12/31 03:09:45;;;;;;;16.10;11.73;;;13.30;99.90;;;;;;5076042;28;20458;-71
2021/12/31 03:12:14;;;;;;;18.63;11.50;;;13.30;99.90;;;;;;5076116;28;20799;-70
2021/12/31 03:14:42;;;;;;;18.03;13.53;;;13.30;99.90;;;;;;5076204;28;20557;-69
2021/12/31 03:17:10;;;;;;;16.47;13.80;;;13.30;99.90;;;;;;5076092;28;20455;-70
2021/12/31 03:19:37;;;;;;;18.60;13.93;;;13.30;99.90;;;;;;5076059;28;20458;-71
2021/12/31 03:22:04;;;;;;;16.50;13.40;;;13.30;99.90;;;;;;5075545;28;20914;-70
2021/12/31 03:24:32;;;;;;;20.37;15.93;;;13.30;99.90;;;;;;5076052;28;20788;-70
2021/12/31 03:26:58;;;;;;;17.90;13.83;;;13.30;99.90;;;;;;5075884;28;20787;-70
2021/12/31 03:29:27;;;;;;;17.27;13.03;;;13.30;99.90;;;;;;5076022;28;20480;-70
2021/12/31 03:31:53;;;;;;;13.47;11.50;;;13.30;99.90;;;;;;5075724;28;20478;-70
2021/12/31 03:34:20;;;;;;;13.90;10.50;;;13.30;99.90;;;;;;5075688;28;20462;-70
2021/12/31 03:36:47;;;;;;;12.83;10.10;;;13.30;99.90;;;;;;5075620;28;20458;-70
2021/12/31 03:39:14;;;;;;;14.40;11.20;;;13.20;99.90;;;;;;5075545;28;20470;-70
2021/12/31 03:41:41;;;;;;;10.73;9.53;;;13.20;99.90;;;;;;5075547;28;20780;-70
2021/12/31 03:44:08;;;;;;;12.70;9.80;;;13.20;99.90;;;;;;5075541;28;20473;-70
2021/12/31 03:46:36;;;;;;;13.87;9.80;;;13.30;99.90;;;;;;5075542;28;20465;-70
2021/12/31 03:49:02;;;;;;;14.30;9.77;;;13.30;99.90;;;;;;5075042;28;20490;-70
2021/12/31 03:51:29;;;;;;;16.27;11.03;;;13.30;99.90;;;;;;5075330;28;20458;-70
2021/12/31 03:53:56;;;;;;;14.20;10.03;;;13.30;99.90;;;;;;5075510;28;20539;-70
2021/12/31 03:56:24;;;;;;;10.40;9.30;;;13.30;99.90;;;;;;5075293;28;20469;-70
2021/12/31 03:58:51;;;;;;;9.10;8.13;;;13.40;99.90;;;;;;5075016;28;20887;-70
2021/12/31 04:01:18;;;;;;;11.13;9.77;;;13.30;99.90;;;;;;5075036;28;20458;-70
2021/12/31 04:03:46;;;;;;;12.13;9.17;;;13.40;99.90;;;;;;5075303;28;20458;-70
2021/12/31 04:06:12;;;;;;;13.03;10.43;;;13.40;99.90;;;;;;5075359;28;20487;-70
2021/12/31 04:08:39;;;;;;;10.87;9.73;;;13.40;99.90;;;;;;5075140;28;20519;-70
2021/12/31 04:11:06;;;;;;;11.50;9.77;;;13.40;99.90;;;;;;5075712;28;20458;-70
2021/12/31 04:13:32;;;;;;;14.80;10.50;;;13.40;99.90;;;;;;5075634;28;21016;-70
2021/12/31 04:15:59;;;;;;;15.17;10.03;;;13.40;99.90;;;;;;5075630;28;20932;-70
2021/12/31 04:18:26;;;;;;;9.90;8.90;;;13.40;99.90;;;;;;5076606;28;20460;-70
2021/12/31 04:20:56;;;;;;;13.67;8.93;;;13.40;99.90;;;;;;5076481;28;20838;-70
2021/12/31 04:23:28;;;;;;;11.90;8.20;;;13.40;99.90;;;;;;5075265;28;20847;-69
2021/12/31 04:25:56;;;;;;;11.40;8.00;;;13.40;99.90;;;;;;5075375;28;20485;-70
2021/12/31 04:28:23;;;;;;;12.30;7.80;;;13.40;99.90;;;;;;5074862;28;20462;-70
2021/12/31 04:30:50;;;;;;;8.33;7.10;;;13.40;99.90;;;;;;5075106;28;20454;-70
2021/12/31 04:33:17;;;;;;;8.33;7.30;;;13.40;99.90;;;;;;5074832;28;20486;-70
2021/12/31 04:35:43;;;;;;;12.53;8.50;;;13.40;99.90;;;;;;5074752;28;20469;-69
2021/12/31 04:38:11;;;;;;;8.70;7.30;;;13.40;99.90;;;;;;5074912;28;20940;-69
2021/12/31 04:40:38;;;;;;;10.13;7.97;;;13.40;99.90;;;;;;5075275;28;20462;-70
2021/12/31 04:43:08;;;;;;;10.60;7.00;;;13.40;99.90;;;;;;5075444;28;20450;-70
2021/12/31 04:45:34;;;;;;;11.50;7.73;;;13.40;99.90;;;;;;5075404;28;20466;-70
2021/12/31 04:48:02;;;;;;;8.50;7.47;;;13.40;99.90;;;;;;5074435;28;20971;-70
2021/12/31 04:50:29;;;;;;;8.10;6.80;;;13.40;99.90;;;;;;5075221;28;20667;-70
2021/12/31 04:52:55;;;;;;;7.63;6.77;;;13.30;99.90;;;;;;5074959;28;20532;-70
2021/12/31 04:55:23;;;;;;;9.67;7.27;;;13.30;99.90;;;;;;5073721;28;20470;-70
2021/12/31 04:57:50;;;;;;;8.27;7.47;;;13.30;99.90;;;;;;5074583;28;20484;-70
2021/12/31 05:00:18;;;;;;;7.20;6.50;;;13.30;99.90;;;;;;5074574;28;20519;-70
2021/12/31 05:02:45;;;;;;;6.80;5.33;;;13.30;99.90;;;;;;5074762;28;20465;-70
2021/12/31 05:05:12;;;;;;;6.20;5.60;;;13.30;99.90;;;;;;5074082;28;20492;-71
2021/12/31 05:07:39;;;;;;;7.83;4.80;;;13.40;99.90;;;;;;5074313;28;20515;-69
2021/12/31 05:10:08;;;;;;;5.37;4.97;;;13.40;99.90;;;;;;5074967;28;20454;-69
2021/12/31 05:12:37;;;;;;;5.73;5.20;;;13.40;99.90;;;;;;5074427;28;20573;-69
2021/12/31 05:15:07;;;;;;;6.57;5.10;;;13.40;99.90;;;;;;5074467;28;20469;-69
2021/12/31 05:17:34;;;;;;;5.07;4.57;;;13.40;99.90;;;;;;5074442;28;20470;-71
2021/12/31 05:20:00;;;;;;;5.53;4.70;;;13.40;99.90;;;;;;5074326;28;20543;-69
2021/12/31 05:22:27;;;;;;;6.17;5.57;;;13.40;99.90;;;;;;5074110;28;20462;-69
2021/12/31 05:24:54;;;;;;;9.33;6.90;;;13.40;99.90;;;;;;5074627;28;20846;-68
2021/12/31 05:27:21;;;;;;;7.53;6.73;;;13.40;99.90;;;;;;5074420;28;20786;-69
2021/12/31 05:29:49;;;;;;;6.53;5.97;;;13.40;99.90;;;;;;5074434;28;20458;-70
2021/12/31 05:32:15;;;;;;;7.13;6.53;;;13.50;99.90;;;;;;5078303;28;20512;-70
2021/12/31 05:34:42;;;;;;;6.90;6.20;;;13.50;99.90;;;;;;5078374;28;20462;-70
2021/12/31 05:37:09;;;;;;;8.00;7.20;;;13.50;99.90;;;;;;5080102;28;20462;-70
2021/12/31 05:39:35;;;;;;;6.37;5.77;;;13.50;99.90;;;;;;5078523;28;20458;-69
2021/12/31 05:42:02;;;;;;;7.93;7.10;;;13.50;99.90;;;;;;5078930;28;20454;-70
2021/12/31 05:44:29;;;;;;;8.20;6.43;;;13.50;99.90;;;;;;5077960;28;20458;-69
2021/12/31 05:46:57;;;;;;;6.80;6.20;;;13.50;99.90;;;;;;5077833;28;20465;-70
2021/12/31 05:49:23;;;;;;;9.70;8.80;;;13.50;99.90;;;;;;5078016;28;20438;-70
2021/12/31 05:51:50;;;;;;;8.87;8.07;;;13.50;99.90;;;;;;5077816;28;20522;-70
2021/12/31 05:54:17;;;;;;;9.80;8.63;;;13.50;99.90;;;;;;5078106;28;20565;-70
2021/12/31 05:56:44;;;;;;;7.73;6.93;;;13.50;99.90;;;;;;5077640;28;20583;-70
2021/12/31 05:59:10;;;;;;;8.50;7.60;;;13.50;99.90;;;;;;5077186;28;20540;-69
2021/12/31 06:01:37;;;;;;;6.33;5.70;;;13.50;99.90;;;;;;5077603;28;20454;-69
2021/12/31 06:04:06;;;;;;;8.10;7.30;;;13.50;99.90;;;;;;5077755;28;20450;-69
2021/12/31 06:06:33;;;;;;;6.30;5.80;;;13.50;99.90;;;;;;5077678;28;20454;-69
2021/12/31 06:08:59;;;;;;;9.03;7.90;;;13.50;99.90;;;;;;5077277;28;20458;-69
2021/12/31 06:11:26;;;;;;;9.70;7.97;;;13.60;99.90;;;;;;5077724;28;20540;-69
2021/12/31 06:14:01;;;;;;;8.40;7.60;;;13.60;99.90;;;;;;5077095;28;20504;-70
2021/12/31 06:16:27;;;;;;;9.03;8.20;;;13.60;99.90;;;;;;5078268;28;20511;-70
2021/12/31 06:18:54;;;;;;;8.90;8.00;;;13.60;99.90;;;;;;5078209;28;20498;-69
2021/12/31 06:21:22;;;;;;;9.60;7.27;;;13.50;99.90;;;;;;5077762;28;20515;-70
2021/12/31 06:23:49;;;;;;;9.40;8.50;;;13.60;99.90;;;;;;5078717;28;20920;-70
2021/12/31 06:26:16;;;;;;;9.00;7.73;;;13.50;99.90;;;;;;5077309;28;20930;-70
2021/12/31 06:28:42;;;;;;;10.17;7.67;;;13.50;99.90;;;;;;5077190;28;20528;-70
2021/12/31 06:31:09;;;;;;;7.63;6.93;;;13.50;99.90;;;;;;5077257;28;20458;-69
2021/12/31 06:33:36;;;;;;;7.63;6.83;;;13.50;99.90;;;;;;5076861;28;20478;-69
2021/12/31 06:36:05;;;;;;;7.30;6.60;;;13.50;99.90;;;;;;5076765;28;20465;-70
2021/12/31 06:38:33;;;;;;;7.83;7.00;;;13.50;99.90;;;;;;5076796;28;20458;-69
2021/12/31 06:41:00;;;;;;;8.37;7.07;;;13.50;99.90;;;;;;5076328;28;20856;-69
2021/12/31 06:43:26;;;;;;;8.63;7.83;;;13.50;99.90;;;;;;5076952;28;20462;-69
2021/12/31 06:45:53;;;;;;;9.70;8.70;;;13.50;99.90;;;;;;5076626;28;20454;-69
2021/12/31 06:48:20;;;;;;;9.20;8.20;;;13.50;99.90;;;;;;5076413;28;20854;-70
2021/12/31 06:50:47;;;;;;;10.80;9.70;;;13.50;99.90;;;;;;5076678;28;20465;-69
2021/12/31 06:53:13;;;;;;;12.50;10.50;;;13.50;99.90;;;;;;5076548;28;20477;-69
2021/12/31 06:55:41;;;;;;;13.13;11.93;;;13.50;99.90;;;;;;5076313;28;20457;-70
2021/12/31 06:58:08;;;;;;;12.60;11.30;;;13.50;99.90;;;;;;5076415;28;20469;-69
2021/12/31 07:00:35;;;;;;;11.83;10.10;;;13.50;99.90;;;;;;5076453;28;20519;-69
2021/12/31 07:03:08;;;;;;;11.50;10.30;;;13.50;99.90;;;;;;5077185;28;20958;-70
2021/12/31 07:05:35;;;;;;;12.50;11.20;;;13.50;99.90;;;;;;5076486;28;20457;-70
2021/12/31 07:08:02;;;;;;;11.80;10.10;;;13.50;99.90;;;;;;5076255;28;20462;-70
2021/12/31 07:10:29;;;;;;;10.60;9.50;;;13.50;99.90;;;;;;5076457;28;20976;-70
2021/12/31 07:13:04;;;;;;;13.20;11.10;;;13.50;99.90;;;;;;5076244;28;20482;-70
2021/12/31 07:15:31;;;;;;;11.87;10.57;;;13.50;99.90;;;;;;5076232;28;20838;-70
2021/12/31 07:17:58;;;;;;;11.20;10.07;;;13.50;99.90;;;;;;5076045;28;20462;-70
2021/12/31 07:20:25;;;;;;;9.37;8.37;;;13.60;99.90;;;;;;5075833;28;20853;-70
2021/12/31 07:22:52;;;;;;;8.80;7.37;;;13.60;99.90;;;;;;5076055;28;20523;-69
2021/12/31 07:25:18;;;;;;;8.10;6.37;;;13.60;99.90;;;;;;5076033;28;20469;-69
2021/12/31 07:27:48;;;;;;;7.10;5.13;;;13.60;99.90;;;;;;5076057;28;20455;-70
2021/12/31 07:30:16;;;;;;;7.50;6.90;;;13.60;99.90;;;;;;5075935;28;20489;-70
2021/12/31 07:32:43;;;;;;;5.23;4.70;;;13.60;99.90;;;;;;5075908;28;20493;-70
2021/12/31 07:35:10;;;;;;;6.03;5.40;;;13.60;99.90;;;;;;5075456;28;20457;-70
2021/12/31 07:37:37;;;;;;;6.33;5.73;;;13.60;99.90;;;;;;5075791;28;20516;-71
2021/12/31 07:40:05;;;;;;;5.43;4.90;;;13.60;99.90;;;;;;5075474;28;20536;-70
2021/12/31 07:42:44;;;;;;;5.57;5.07;;;13.60;99.90;;;;;;5075962;28;20557;-70
2021/12/31 07:45:11;;;;;;;6.17;5.67;;;13.60;99.90;;;;;;5075886;28;20454;-70
2021/12/31 07:47:39;;;;;;;8.63;7.57;;;13.60;99.90;;;;;;5075967;28;20540;-71
2021/12/31 07:50:06;;;;;;;8.27;7.30;;;13.60;99.90;;;;;;5076359;28;20775;-70
2021/12/31 07:52:33;;;;;;;6.33;5.83;;;13.60;99.90;;;;;;5074714;28;20458;-70
2021/12/31 07:54:59;;;;;;;5.43;4.47;;;13.70;99.90;;;;;;5075382;28;20509;-72
2021/12/31 07:57:26;;;;;;;6.07;5.47;;;13.70;99.90;;;;;;5075131;28;20910;-71
2021/12/31 07:59:53;;;;;;;5.50;5.00;;;13.70;99.90;;;;;;5075456;28;20465;-71
2021/12/31 08:02:19;;;;;;;5.20;4.80;;;13.70;99.90;;;;;;5075501;28;20454;-69
2021/12/31 08:04:50;;;;;;;5.13;4.63;;;13.70;99.90;;;;;;5075312;28;20544;-70
2021/12/31 08:07:16;;;;;;;5.40;4.53;;;13.70;99.90;;;;;;5075105;28;20442;-70
2021/12/31 08:09:43;;;;;;;4.80;4.40;;;13.70;99.90;;;;;;5075075;28;20458;-70
2021/12/31 08:12:10;;;;;;;6.10;4.37;;;13.70;99.90;;;;;;5075196;28;20454;-69
2021/12/31 08:14:36;;;;;;;4.50;4.10;;;13.80;99.90;;;;;;5074972;28;20972;-71
2021/12/31 08:17:03;;;;;;;4.63;4.23;;;13.80;99.90;;;;;;5075085;28;20519;-71
2021/12/31 08:19:30;;;;;;;4.43;4.03;;;13.80;99.90;;;;;;5075246;28;20465;-70
2021/12/31 08:21:58;;;;;;;4.27;3.87;;;13.80;99.90;;;;;;5074857;28;20463;-69
2021/12/31 08:24:25;;;;;;;3.80;3.50;;;13.80;99.90;;;;;;5075011;28;20969;-70
2021/12/31 08:26:51;;;;;;;5.37;3.80;;;13.80;99.90;;;;;;5074888;28;20498;-70
2021/12/31 08:29:18;;;;;;;5.67;4.30;;;13.80;99.90;;;;;;5075233;28;20458;-70
2021/12/31 08:31:45;;;;;;;3.77;3.47;;;13.90;99.90;;;;;;5078507;28;20913;-71
2021/12/31 08:34:12;;;;;;;4.63;3.67;;;13.80;99.90;;;;;;5076628;28;20563;-70
2021/12/31 08:36:39;;;;;;;4.13;3.73;;;13.80;99.90;;;;;;5075089;28;20512;-70
2021/12/31 08:39:09;;;;;;;3.80;3.50;;;13.80;99.90;;;;;;5074852;28;20484;-70
2021/12/31 08:41:38;;;;;;;4.60;4.20;;;13.90;99.90;;;;;;5074810;28;20537;-71
2021/12/31 08:44:05;;;;;;;4.07;3.10;;;13.90;99.90;;;;;;5074821;28;20454;-72
2021/12/31 08:46:32;;;;;;;5.37;3.67;;;13.90;99.90;;;;;;5074736;28;20476;-72
2021/12/31 08:48:59;;;;;;;5.20;3.30;;;14.00;99.90;;;;;;5074217;28;20551;-70
2021/12/31 08:51:25;;;;;;;3.77;3.00;;;14.00;99.90;;;;;;5074858;28;20462;-70
2021/12/31 08:53:52;;;;;;;3.70;3.13;;;14.00;99.90;;;;;;5074790;28;20615;-72
2021/12/31 08:56:20;;;;;;;3.10;2.80;;;14.00;99.90;;;;;;5074475;28;20465;-71
2021/12/31 08:58:47;;;;;;;3.70;2.70;;;14.00;99.90;;;;;;5074610;28;20474;-70
2021/12/31 09:01:14;;;;;;;4.57;2.70;;;14.00;99.90;;;;;;5074566;28;20458;-72
2021/12/31 09:03:41;;;;;;;4.60;3.40;;;14.00;99.90;;;;;;5074705;28;20481;-70
2021/12/31 09:06:08;;;;;;;4.87;4.30;;;14.00;99.90;;;;;;5078630;28;20462;-71
2021/12/31 09:08:36;;;;;;;3.50;3.13;;;14.00;99.90;;;;;;5078375;28;20473;-70
2021/12/31 09:11:03;;;;;;;3.10;2.90;;;14.00;99.90;;;;;;5078438;28;20519;-69
2021/12/31 09:13:32;;;;;;;4.20;3.70;;;14.00;99.90;;;;;;5078550;28;20588;-69
2021/12/31 09:15:59;;;;;;;6.40;4.00;;;14.00;99.90;;;;;;5078519;28;20516;-71
2021/12/31 09:18:25;;;;;;;10.67;3.47;;;14.10;99.90;;;;;;5078956;28;20841;-71
2021/12/31 09:20:53;;;;;;;4.17;3.73;;;14.00;99.90;;;;;;5080501;28;20458;-71
2021/12/31 09:23:19;;;;;;;3.47;3.23;;;14.10;99.90;;;;;;5079188;28;20454;-69
2021/12/31 09:25:46;;;;;;;6.13;3.77;;;14.10;99.90;;;;;;5079584;28;20476;-69
2021/12/31 09:28:13;;;;;;;3.93;3.40;;;14.10;99.90;;;;;;5078825;28;20469;-71
2021/12/31 09:30:41;;;;;;;4.13;3.77;;;14.10;99.90;;;;;;5078691;28;20457;-70
2021/12/31 09:33:08;;;;;;;4.80;3.53;;;14.10;99.90;;;;;;5078065;28;20457;-70
2021/12/31 09:35:34;;;;;;;4.60;4.20;;;14.10;99.90;;;;;;5078257;28;20942;-70
2021/12/31 09:38:06;;;;;;;4.10;3.60;;;14.10;99.90;;;;;;5078457;28;20464;-70
2021/12/31 09:40:49;;;;;;;3.70;3.40;;;14.10;99.90;;;;;;5078464;28;20435;-69
2021/12/31 09:43:15;;;;;;;4.27;3.00;;;14.10;99.90;;;;;;5077545;28;20499;-69
2021/12/31 09:45:47;;;;;;;5.53;3.20;;;14.20;99.90;;;;;;5077906;28;20454;-71
2021/12/31 09:48:16;;;;;;;3.10;2.90;;;14.20;99.90;;;;;;5077009;28;20958;-70
2021/12/31 09:50:45;;;;;;;6.70;2.70;;;14.20;99.90;;;;;;5077255;28;20453;-71
2021/12/31 09:53:13;;;;;;;3.07;2.10;;;14.30;99.90;;;;;;5077630;28;20517;-70
2021/12/31 09:55:42;;;;;;;2.23;2.03;;;14.30;99.90;;;;;;5077372;28;20516;-71
2021/12/31 09:58:10;;;;;;;2.27;2.07;;;14.30;99.90;;;;;;5077377;28;20453;-70
2021/12/31 10:00:38;;;;;;;3.77;2.40;;;14.30;99.90;;;;;;5077610;28;20742;-70
2021/12/31 10:03:15;;;;;;;2.43;1.97;;;14.30;99.90;;;;;;5077251;28;20492;-70
2021/12/31 10:05:42;;;;;;;3.13;2.37;;;14.40;99.90;;;;;;5077408;28;20453;-70
2021/12/31 10:08:21;;;;;;;1.80;1.70;;;14.40;99.90;;;;;;5076884;28;20976;-70
2021/12/31 10:11:06;;;;;;;2.50;1.97;;;14.50;99.90;;;;;;5077169;28;20442;-70
2021/12/31 10:13:35;;;;;;;2.63;2.00;;;14.40;99.90;;;;;;5077309;28;20442;-70
2021/12/31 10:16:02;;;;;;;4.30;2.10;;;14.40;99.90;;;;;;5076398;28;20481;-70
2021/12/31 10:18:35;;;;;;;2.40;1.97;;;14.40;99.90;;;;;;5077328;28;20469;-70
2021/12/31 10:21:02;;;;;;;2.43;1.80;;;14.40;99.90;;;;;;5077673;28;20450;-70
2021/12/31 10:23:29;;;;;;;2.70;2.10;;;14.40;99.90;;;;;;5077470;28;20458;-71
2021/12/31 10:26:12;;;;;;;2.70;1.97;;;14.40;99.90;;;;;;5077092;28;20454;-71
2021/12/31 10:28:51;;;;;;;1.70;1.60;;;14.40;99.90;;;;;;5074950;28;20462;-71
2021/12/31 10:31:17;;;;;;;2.10;1.90;;;14.40;99.90;;;;;;5077259;28;20438;-71
2021/12/31 10:33:47;;;;;;;3.33;2.17;;;14.40;99.90;;;;;;5076674;28;20458;-71
2021/12/31 10:36:33;;;;;;;2.17;1.77;;;14.40;99.90;;;;;;5076870;28;20495;-71
2021/12/31 10:39:03;;;;;;;4.23;1.97;;;14.40;99.90;;;;;;5076520;28;20525;-71
2021/12/31 10:41:29;;;;;;;3.90;1.80;;;14.30;99.90;;;;;;5076463;28;20450;-71
2021/12/31 10:43:59;;;;;;;2.40;1.70;;;14.30;99.90;;;;;;5076169;28;20448;-70
2021/12/31 10:46:26;;;;;;;1.50;1.40;;;14.30;99.90;;;;;;5076411;28;20561;-71
2021/12/31 10:49:06;;;;;;;2.73;1.77;;;14.20;99.90;;;;;;5076205;28;20489;-69
2021/12/31 10:51:41;;;;;;;3.20;1.93;;;14.20;99.90;;;;;;5076343;28;20434;-70
2021/12/31 10:54:30;;;;;;;5.60;2.30;;;14.20;99.90;;;;;;5076400;28;20466;-70
2021/12/31 10:56:59;;;;;;;5.37;2.07;;;14.20;99.90;;;;;;5076308;28;20836;-71
2021/12/31 10:59:26;;;;;;;3.30;2.23;;;14.20;99.90;;;;;;5076325;28;20795;-70
2021/12/31 11:01:54;;;;;;;2.60;1.80;;;14.10;99.90;;;;;;5076247;28;20465;-70
2021/12/31 11:04:23;;;;;;;4.77;1.90;;;14.20;99.90;;;;;;5075923;28;20520;-70
2021/12/31 11:06:50;;;;;;;4.40;1.80;;;14.20;99.90;;;;;;5076270;28;20466;-70
2021/12/31 11:09:17;;;;;;;1.60;1.20;;;14.20;99.90;;;;;;5076130;28;20490;-71
2021/12/31 11:11:47;;;;;;;2.63;1.63;;;14.20;99.90;;;;;;5076123;28;20459;-70
2021/12/31 11:14:16;;;;;;;3.53;1.57;;;14.30;99.90;;;;;;5075740;28;20488;-71
2021/12/31 11:16:42;;;;;;;2.30;1.60;;;14.30;99.90;;;;;;5075896;28;20454;-71
2021/12/31 11:19:11;;;;;;;1.50;1.40;;;14.30;99.90;;;;;;5076441;28;20458;-70
2021/12/31 11:21:40;;;;;;;4.00;1.73;;;14.30;99.90;;;;;;5076115;28;20524;-70
2021/12/31 11:24:34;;;;;;;3.33;1.90;;;14.40;99.90;;;;;;5075729;28;20481;-70
2021/12/31 11:27:27;;;;;;;1.80;1.70;;;14.30;99.90;;;;;;5075490;28;20519;-70
2021/12/31 11:29:55;;;;;;;2.23;1.33;;;14.30;99.90;;;;;;5075665;28;20467;-71
2021/12/31 11:32:57;;;;;;;2.13;1.70;;;14.30;99.90;;;;;;5075674;28;20561;-70
2021/12/31 11:35:33;;;;;;;2.40;1.60;;;14.30;99.90;;;;;;5075209;28;20474;-71
2021/12/31 11:38:03;;;;;;;4.30;2.07;;;14.30;99.90;;;;;;5076097;28;20441;-71
2021/12/31 11:40:36;;;;;;;3.20;1.40;;;14.30;99.90;;;;;;5075198;28;20442;-71
2021/12/31 11:43:30;;;;;;;1.70;1.60;;;14.30;99.90;;;;;;5075480;28;20484;-70
2021/12/31 11:46:32;;;;;;;2.07;1.60;;;14.30;99.90;;;;;;5039990;28;20834;-70
2021/12/31 11:49:02;;;;;;;2.10;1.30;;;14.30;99.90;;;;;;5075341;28;20508;-71
2021/12/31 11:51:34;;;;;;;1.90;1.60;;;14.30;99.90;;;;;;5075316;28;20788;-70
2021/12/31 11:54:20;;;;;;;4.13;2.80;;;14.20;99.90;;;;;;5075985;28;20497;-70
2021/12/31 11:56:59;;;;;;;3.50;1.50;;;14.20;99.90;;;;;;5078299;28;20442;-71
2021/12/31 11:59:37;;;;;;;2.70;1.80;;;14.20;99.90;;;;;;5080119;28;20457;-70
2021/12/31 12:02:15;;;;;;;2.73;1.30;;;14.20;99.90;;;;;;5075229;28;20466;-70
2021/12/31 12:04:46;;;;;;;3.00;1.77;;;14.20;99.90;;;;;;5075067;28;20882;-70
2021/12/31 12:07:33;;;;;;;2.07;1.53;;;14.20;99.90;;;;;;5075035;28;20902;-70
2021/12/31 12:10:19;;;;;;;1.80;1.60;;;14.20;99.90;;;;;;5075197;28;20545;-71
2021/12/31 12:12:50;;;;;;;3.07;2.00;;;14.20;99.90;;;;;;5074971;28;20438;-70
2021/12/31 12:15:35;;;;;;;3.13;2.00;;;14.20;99.90;;;;;;5074822;28;20553;-70
2021/12/31 12:18:06;;;;;;;2.40;1.53;;;14.10;99.90;;;;;;5075131;28;20822;-70
2021/12/31 12:20:42;;;;;;;2.30;1.63;;;14.10;99.90;;;;;;5074862;28;20442;-70
2021/12/31 12:23:23;;;;;;;3.00;1.50;;;14.10;99.90;;;;;;5075345;28;20457;-71
2021/12/31 12:25:50;;;;;;;2.30;1.60;;;14.20;99.90;;;;;;5074798;28;20957;-70
2021/12/31 12:28:19;;;;;;;4.63;1.57;;;14.20;99.90;;;;;;5074845;28;20820;-70
2021/12/31 12:30:53;;;;;;;3.50;1.50;;;14.20;99.90;;;;;;5074893;28;20466;-70
2021/12/31 12:33:22;;;;;;;2.40;2.17;;;14.20;99.90;;;;;;5074811;28;20503;-69
2021/12/31 12:35:54;;;;;;;2.27;1.40;;;14.30;99.90;;;;;;5074396;28;20958;-71
2021/12/31 12:38:23;;;;;;;1.80;1.57;;;14.30;99.90;;;;;;5074619;28;20451;-70
2021/12/31 12:40:56;;;;;;;1.40;1.30;;;14.40;99.90;;;;;;5074654;28;20458;-70
2021/12/31 12:43:24;;;;;;;2.83;1.60;;;14.40;99.90;;;;;;5074852;28;20439;-70
2021/12/31 12:45:54;;;;;;;1.50;1.40;;;14.40;99.90;;;;;;5074765;28;20545;-71
2021/12/31 12:48:32;;;;;;;3.40;1.90;;;14.50;99.90;;;;;;5074358;28;20551;-72
2021/12/31 12:51:02;;;;;;;3.60;1.60;;;14.50;99.90;;;;;;5074876;28;20442;-70
2021/12/31 12:53:30;;;;;;;3.30;1.70;;;14.50;99.90;;;;;;5074934;28;20788;-70